Time;durP1;ratioP1;P1;durP2;ratioP2;P2;SDS_P1;SDS_P2;PMS_P1;PMS_P2;Temp;Humidity;BMP_temperature;BMP_pressure;BME280_temperature;BME280_humidity;BME280_pressure;Samples;Min_cycle;Max_cycle;Signal;HPM_P1;HPM_P2
2022/07/31 00:02:01;;;;;;;6.22;5.72;;;;;;;16.58;66.20;100995.78;5071164;28;20033;-28
2022/07/31 00:04:27;;;;;;;6.53;6.03;;;;;;;16.55;66.52;100988.75;5061717;28;20031;-28
2022/07/31 00:06:52;;;;;;;6.07;5.63;;;;;;;16.51;66.30;100984.44;5057271;28;20484;-28
2022/07/31 00:09:17;;;;;;;6.40;5.90;;;;;;;16.48;66.21;100982.75;5070872;28;20029;-28
2022/07/31 00:11:44;;;;;;;6.50;5.95;;;;;;;16.47;66.47;100986.28;5071087;28;20036;-28
2022/07/31 00:14:11;;;;;;;5.90;5.47;;;;;;;16.44;66.36;100981.06;5070998;28;20029;-28
2022/07/31 00:16:36;;;;;;;6.30;5.80;;;;;;;16.43;66.34;100984.63;5070750;28;20215;-28
2022/07/31 00:19:01;;;;;;;6.47;5.90;;;;;;;16.41;66.62;100991.81;5052816;28;20032;-28
2022/07/31 00:21:27;;;;;;;6.75;5.93;;;;;;;16.39;66.54;100985.66;5070987;28;20391;-28
2022/07/31 00:23:52;;;;;;;6.22;5.72;;;;;;;16.36;66.41;100983.06;5070117;28;20028;-28
2022/07/31 00:26:17;;;;;;;7.43;5.15;;;;;;;16.34;66.63;100979.59;5071381;28;20073;-28
2022/07/31 00:28:43;;;;;;;6.95;6.03;;;;;;;16.33;66.52;100983.16;5055220;28;20020;-28
2022/07/31 00:31:08;;;;;;;6.03;5.47;;;;;;;16.29;66.48;100977.06;5052774;28;20030;-28
2022/07/31 00:33:34;;;;;;;5.93;5.32;;;;;;;16.28;66.68;100978.84;5052456;28;20085;-28
2022/07/31 00:35:59;;;;;;;6.35;5.85;;;;;;;16.28;66.59;100981.50;5080699;28;20028;-28
2022/07/31 00:38:24;;;;;;;6.45;5.95;;;;;;;16.24;66.54;100989.63;5052978;28;20067;-28
2022/07/31 00:40:50;;;;;;;6.45;5.85;;;;;;;16.21;66.43;100982.56;5070532;28;20073;-28
2022/07/31 00:43:17;;;;;;;5.85;5.30;;;;;;;16.20;66.51;100983.50;5035166;28;20032;-28
2022/07/31 00:45:43;;;;;;;5.75;5.25;;;;;;;16.15;66.45;100983.63;5069654;28;20025;-28
2022/07/31 00:48:08;;;;;;;6.18;5.68;;;;;;;16.13;66.71;100993.44;5071078;28;20040;-28
2022/07/31 00:50:33;;;;;;;6.22;5.72;;;;;;;16.11;66.65;100997.94;5070907;28;20079;-28
2022/07/31 00:52:59;;;;;;;6.55;5.20;;;;;;;16.08;66.59;100989.16;5071087;28;20032;-28
2022/07/31 00:55:25;;;;;;;5.60;5.20;;;;;;;16.07;66.70;100998.06;5070421;28;20028;-28
2022/07/31 00:57:50;;;;;;;5.85;5.25;;;;;;;16.03;66.74;100998.16;5070253;28;20024;-28
2022/07/31 01:00:16;;;;;;;5.68;5.28;;;;;;;16.01;66.77;100997.31;5070456;28;20404;-28
2022/07/31 01:02:41;;;;;;;6.00;5.50;;;;;;;16.00;66.68;100992.03;5071256;28;20515;-28
2022/07/31 01:05:07;;;;;;;6.05;5.55;;;;;;;15.97;66.74;100987.66;5070682;28;20038;-28
2022/07/31 01:07:33;;;;;;;5.68;5.28;;;;;;;15.97;66.52;100992.97;5073653;28;20025;-27
2022/07/31 01:10:00;;;;;;;5.95;5.32;;;;;;;15.95;66.64;100991.25;5074516;28;20028;-28
2022/07/31 01:12:34;;;;;;;5.55;5.03;;;;;;;15.94;66.74;100987.69;5056502;28;20036;-28
2022/07/31 01:15:04;;;;;;;5.03;4.72;;;;;;;15.90;66.82;100991.38;5073694;28;20078;-28
2022/07/31 01:17:30;;;;;;;6.07;5.57;;;;;;;15.88;66.56;100998.53;5056242;28;20454;-28
2022/07/31 01:19:56;;;;;;;5.60;5.07;;;;;;;15.86;66.83;100995.03;5056014;28;20050;-28
2022/07/31 01:22:52;;;;;;;6.00;5.50;;;;;;;15.87;66.89;100996.78;5055928;28;20078;-28
2022/07/31 01:25:33;;;;;;;6.10;5.60;;;;;;;15.81;66.56;100992.50;5073730;28;20055;-28
2022/07/31 01:28:06;;;;;;;6.27;5.80;;;;;;;15.81;66.83;100992.50;5055044;28;20032;-28
2022/07/31 01:30:40;;;;;;;6.05;5.55;;;;;;;15.78;66.81;100982.78;5066069;28;20028;-28
2022/07/31 01:33:09;;;;;;;6.47;5.88;;;;;;;15.75;66.84;100993.53;5041806;28;20590;-28
2022/07/31 01:35:41;;;;;;;5.72;5.22;;;;;;;15.75;66.95;100993.53;5058589;28;20068;-28
2022/07/31 01:38:12;;;;;;;5.53;5.03;;;;;;;15.73;66.83;101000.66;5074096;28;20028;-28
2022/07/31 01:40:41;;;;;;;;;;;;;;;15.70;66.87;100995.41;5074642;28;20101;-28
2022/07/31 01:43:19;;;;;;;5.47;4.97;;;;;;;15.69;67.07;100992.78;5060008;28;19913;-28
2022/07/31 01:45:46;;;;;;;5.47;5.07;;;;;;;15.65;66.90;100987.53;5055000;28;20032;-28
2022/07/31 01:48:13;;;;;;;5.72;5.22;;;;;;;15.64;66.95;100984.97;5039011;28;20401;-28
2022/07/31 01:50:40;;;;;;;6.00;5.50;;;;;;;15.61;67.08;100983.22;5060522;28;20016;-28
2022/07/31 01:53:06;;;;;;;5.47;5.00;;;;;;;15.60;67.20;100985.91;5066093;28;20028;-28
2022/07/31 01:55:32;;;;;;;5.97;5.35;;;;;;;15.58;67.15;100985.09;5074004;28;20040;-28
2022/07/31 01:57:58;;;;;;;5.88;5.38;;;;;;;15.60;67.16;100993.91;5036867;28;20048;-28
2022/07/31 02:00:23;;;;;;;6.05;5.45;;;;;;;15.56;67.12;100982.47;5055517;28;20484;-28
2022/07/31 02:02:50;;;;;;;5.80;5.18;;;;;;;15.53;67.14;100987.88;5081215;28;20036;-28
2022/07/31 02:05:16;;;;;;;6.03;5.53;;;;;;;15.55;66.99;100993.16;5082420;28;20016;-28
2022/07/31 02:07:42;;;;;;;6.45;5.88;;;;;;;15.52;67.10;100997.66;5056106;28;20066;-28
2022/07/31 02:10:13;;;;;;;5.82;5.30;;;;;;;15.50;67.27;100991.47;5060459;28;20392;-28
2022/07/31 02:12:39;;;;;;;;;;;;;;;15.47;67.22;100991.53;5061233;28;20035;-28
2022/07/31 02:15:07;;;;;;;6.18;5.68;;;;;;;15.47;66.85;100980.06;5065214;28;19912;-28
2022/07/31 02:17:33;;;;;;;5.43;5.03;;;;;;;15.44;67.12;100978.31;5054538;28;20122;-28
2022/07/31 02:19:59;;;;;;;6.00;5.50;;;;;;;15.43;67.51;100979.25;5072887;28;20506;-28
2022/07/31 02:22:24;;;;;;;5.85;5.32;;;;;;;15.41;67.16;100969.56;5072233;28;20039;-28
2022/07/31 02:24:50;;;;;;;6.03;5.55;;;;;;;15.39;67.16;100969.59;5046938;28;20400;-28
2022/07/31 02:27:15;;;;;;;6.18;5.68;;;;;;;15.37;67.28;100960.78;5073749;28;20078;-28
2022/07/31 02:29:41;;;;;;;6.63;6.03;;;;;;;15.37;67.08;100976.72;5051972;28;20511;-28
2022/07/31 02:32:07;;;;;;;6.40;5.72;;;;;;;15.34;67.20;100975.03;5054125;28;20059;-28
2022/07/31 02:34:33;;;;;;;5.97;5.47;;;;;;;15.34;67.27;100972.38;5073871;28;20226;-28
2022/07/31 02:36:59;;;;;;;5.88;5.45;;;;;;;15.31;67.03;100971.59;5063343;28;20120;-28
2022/07/31 02:39:25;;;;;;;6.68;6.03;;;;;;;15.31;67.09;100974.25;5054931;28;20025;-28
2022/07/31 02:41:51;;;;;;;6.45;5.93;;;;;;;15.26;67.09;100974.34;5058679;28;20033;-28
2022/07/31 02:44:17;;;;;;;6.32;5.70;;;;;;;15.24;67.22;100966.41;5071847;28;20487;-28
2022/07/31 02:46:43;;;;;;;8.77;6.40;;;;;;;15.21;67.27;100963.81;5071808;28;20395;-28
2022/07/31 02:49:10;;;;;;;6.25;5.75;;;;;;;15.18;67.04;100971.88;5051413;28;20035;-28
2022/07/31 02:51:35;;;;;;;6.22;5.63;;;;;;;15.17;67.04;100964.81;5060235;28;20210;-28
2022/07/31 02:54:01;;;;;;;6.35;5.72;;;;;;;15.16;67.10;100962.19;5054006;28;20021;-28
2022/07/31 02:56:27;;;;;;;6.50;6.00;;;;;;;15.16;67.45;100965.72;5072803;28;20029;-28
2022/07/31 02:58:53;;;;;;;6.40;5.82;;;;;;;15.12;67.16;100958.72;5072522;28;20403;-28
2022/07/31 03:01:18;;;;;;;6.88;6.30;;;;;;;15.12;67.52;100966.69;5072763;28;20033;-28
2022/07/31 03:03:43;;;;;;;6.65;6.10;;;;;;;15.10;67.36;100963.19;5072044;28;20025;-28
2022/07/31 03:06:09;;;;;;;6.43;5.93;;;;;;;15.12;67.33;100958.72;5072194;28;20058;-28
2022/07/31 03:08:35;;;;;;;6.78;6.18;;;;;;;15.11;67.46;100967.63;5072308;28;20036;-28
2022/07/31 03:11:00;;;;;;;6.80;6.20;;;;;;;15.06;67.52;100957.09;5071881;28;20054;-28
2022/07/31 03:13:28;;;;;;;7.05;6.45;;;;;;;15.05;67.60;100958.00;5053929;28;20047;-28
2022/07/31 03:15:53;;;;;;;7.47;6.38;;;;;;;15.04;67.45;100956.25;5054879;28;20102;-27
2022/07/31 03:18:20;;;;;;;7.15;6.55;;;;;;;15.03;67.38;100953.66;5054800;28;20095;-28
2022/07/31 03:20:50;;;;;;;7.25;6.65;;;;;;;15.03;67.42;100962.47;5054107;28;20024;-28
2022/07/31 03:23:15;;;;;;;7.13;6.15;;;;;;;15.00;67.48;100958.09;5053641;28;20028;-28
2022/07/31 03:25:41;;;;;;;6.95;6.38;;;;;;;14.99;67.30;100960.81;5054295;28;20477;-28
2022/07/31 03:28:07;;;;;;;7.00;6.40;;;;;;;14.98;67.43;100957.25;5070917;28;20387;-28
2022/07/31 03:30:33;;;;;;;6.75;6.25;;;;;;;14.95;67.38;100960.00;5070859;28;20468;-28
2022/07/31 03:33:01;;;;;;;7.32;6.63;;;;;;;14.92;67.47;100954.75;5072271;28;20021;-28
2022/07/31 03:35:27;;;;;;;6.68;6.10;;;;;;;14.90;67.55;100958.38;5070459;28;20094;-28
2022/07/31 03:37:52;;;;;;;6.47;5.97;;;;;;;14.90;67.43;100955.72;5071964;28;20415;-28
2022/07/31 03:40:18;;;;;;;6.45;5.85;;;;;;;14.89;67.33;100960.13;5070757;28;20033;-28
2022/07/31 03:42:43;;;;;;;7.70;6.15;;;;;;;14.90;67.70;100961.03;5069016;28;20099;-28
2022/07/31 03:45:09;;;;;;;5.65;5.25;;;;;;;14.88;67.45;100959.25;5054081;28;20052;-28
2022/07/31 03:47:35;;;;;;;6.15;5.65;;;;;;;14.85;67.63;100953.16;5053288;28;20029;-28
2022/07/31 03:50:00;;;;;;;6.55;6.05;;;;;;;14.83;67.62;100952.28;5053545;28;20082;-28
2022/07/31 03:52:27;;;;;;;5.90;5.40;;;;;;;14.83;67.72;100944.34;5071410;28;20186;-28
2022/07/31 03:54:53;;;;;;;6.10;5.60;;;;;;;14.82;67.82;100943.47;5053508;28;20050;-28
2022/07/31 03:57:18;;;;;;;5.97;5.47;;;;;;;14.81;67.78;100946.16;5057532;28;20321;-28
2022/07/31 03:59:45;;;;;;;5.63;5.13;;;;;;;14.82;67.66;100956.75;5040990;28;20035;-28
2022/07/31 04:02:10;;;;;;;6.40;5.95;;;;;;;14.81;67.73;100954.13;5053492;28;20032;-28
2022/07/31 04:04:36;;;;;;;6.00;5.50;;;;;;;14.80;67.77;100957.69;5052513;28;20036;-27
2022/07/31 04:07:03;;;;;;;6.32;5.82;;;;;;;14.79;67.73;100947.97;5058109;28;20024;-28
2022/07/31 04:09:28;;;;;;;5.93;5.40;;;;;;;14.75;67.83;100953.31;5071517;28;20027;-28
2022/07/31 04:11:54;;;;;;;5.75;5.25;;;;;;;14.77;68.06;100955.06;5074595;28;20377;-28
2022/07/31 04:14:19;;;;;;;5.90;5.40;;;;;;;14.75;67.71;100950.66;5071469;28;20036;-28
2022/07/31 04:16:44;;;;;;;9.40;6.20;;;;;;;14.75;67.98;100948.00;5080998;28;20517;-28
2022/07/31 04:19:10;;;;;;;6.03;5.53;;;;;;;14.75;68.22;100950.66;5072015;28;20476;-28
2022/07/31 04:21:35;;;;;;;6.15;5.65;;;;;;;14.75;67.96;100953.31;5071575;28;20028;-28
2022/07/31 04:24:00;;;;;;;6.10;5.63;;;;;;;14.75;68.05;100952.44;5070151;28;20171;-28
2022/07/31 04:26:27;;;;;;;5.47;5.00;;;;;;;14.76;68.24;100954.19;5070677;28;20503;-28
2022/07/31 04:28:53;;;;;;;5.97;5.47;;;;;;;14.75;67.88;100948.00;5080143;28;20056;-28
2022/07/31 04:31:18;;;;;;;6.03;5.53;;;;;;;14.77;68.20;100955.06;5069954;28;20121;-28
2022/07/31 04:33:44;;;;;;;5.22;4.82;;;;;;;14.81;67.97;100956.78;5078803;28;20082;-28
2022/07/31 04:36:09;;;;;;;5.25;4.88;;;;;;;14.78;68.20;100963.03;5076724;28;20449;-28
2022/07/31 04:38:34;;;;;;;6.00;5.50;;;;;;;14.80;68.01;100963.88;5072934;28;20024;-27
2022/07/31 04:41:00;;;;;;;5.45;4.95;;;;;;;14.81;67.92;100957.63;5083760;28;20031;-28
2022/07/31 04:43:25;;;;;;;5.55;5.15;;;;;;;14.83;67.95;100966.47;5075279;28;20039;-28
2022/07/31 04:45:50;;;;;;;6.00;5.07;;;;;;;14.84;68.24;100972.66;5077380;28;20035;-28
2022/07/31 04:48:16;;;;;;;5.75;4.95;;;;;;;14.86;68.00;100965.50;5077215;28;20036;-28
2022/07/31 04:50:41;;;;;;;5.03;4.70;;;;;;;14.91;68.06;100968.97;5084209;28;20380;-28
2022/07/31 04:53:06;;;;;;;5.72;5.13;;;;;;;14.93;67.99;100963.59;5056934;28;20111;-28
2022/07/31 04:55:32;;;;;;;5.10;4.68;;;;;;;14.96;68.04;100967.06;5071161;28;20401;-28
2022/07/31 04:57:57;;;;;;;5.60;5.10;;;;;;;15.02;67.84;100960.72;5074772;28;20015;-28
2022/07/31 05:00:23;;;;;;;5.05;4.65;;;;;;;15.06;67.92;100962.41;5075132;28;20055;-28
2022/07/31 05:02:48;;;;;;;5.22;4.72;;;;;;;15.11;67.95;100962.31;5074342;28;20108;-28
2022/07/31 05:05:15;;;;;;;5.95;5.53;;;;;;;15.14;67.84;100959.59;5074251;28;20150;-28
2022/07/31 05:07:40;;;;;;;5.70;5.22;;;;;;;15.20;67.80;100966.53;5074743;28;20074;-28
2022/07/31 05:10:06;;;;;;;4.82;4.53;;;;;;;15.26;67.73;100961.94;5073989;28;20078;-27
2022/07/31 05:12:31;;;;;;;5.78;5.32;;;;;;;15.33;67.89;100969.75;5074484;28;20544;-28
2022/07/31 05:14:57;;;;;;;5.35;4.95;;;;;;;15.39;67.86;100969.59;5074208;28;20033;-28
2022/07/31 05:17:22;;;;;;;4.88;4.57;;;;;;;15.47;68.48;100972.09;5073841;28;20033;-28
2022/07/31 05:19:47;;;;;;;6.20;5.80;;;;;;;15.56;68.98;100979.81;5073456;28;20470;-27
2022/07/31 05:22:13;;;;;;;7.00;6.40;;;;;;;15.65;68.41;100981.38;5054355;28;20024;-28
2022/07/31 05:24:39;;;;;;;6.15;5.55;;;;;;;15.72;68.54;100982.09;5055571;28;20021;-28
2022/07/31 05:27:04;;;;;;;6.03;5.53;;;;;;;15.78;67.40;100976.63;5074178;28;20078;-28
2022/07/31 05:29:31;;;;;;;5.90;5.40;;;;;;;15.86;67.67;100979.06;5074062;28;20077;-28
2022/07/31 05:31:57;;;;;;;6.40;5.78;;;;;;;15.92;67.40;100984.22;5074140;28;20024;-28
2022/07/31 05:34:22;;;;;;;6.15;5.65;;;;;;;15.99;67.14;100974.31;5073604;28;20460;-28
2022/07/31 05:36:47;;;;;;;5.60;5.20;;;;;;;16.06;67.46;100975.03;5074139;28;20541;-28
2022/07/31 05:39:13;;;;;;;5.45;4.95;;;;;;;16.12;66.78;100975.75;5073452;28;20392;-28
2022/07/31 05:41:38;;;;;;;6.35;5.75;;;;;;;16.19;66.86;100972.91;5074272;28;20036;-28
2022/07/31 05:44:04;;;;;;;5.60;5.20;;;;;;;16.23;66.60;100972.78;5073975;28;20343;-28
2022/07/31 05:46:29;;;;;;;5.47;5.07;;;;;;;16.29;66.35;100987.69;5073673;28;20476;-28
2022/07/31 05:48:54;;;;;;;6.03;5.60;;;;;;;16.35;66.88;100987.53;5073904;28;20456;-28
2022/07/31 05:51:20;;;;;;;5.40;5.00;;;;;;;16.39;66.45;100981.22;5066490;28;20485;-28
2022/07/31 05:53:45;;;;;;;5.75;5.25;;;;;;;16.45;66.43;100980.16;5070759;28;20035;-28
2022/07/31 05:56:11;;;;;;;6.60;5.88;;;;;;;16.53;67.28;100980.81;5073617;28;20503;-28
2022/07/31 05:58:36;;;;;;;5.75;5.25;;;;;;;16.60;66.81;100983.31;5073455;28;20024;-28
2022/07/31 06:01:02;;;;;;;6.38;5.82;;;;;;;16.66;66.96;100983.09;5072153;28;20023;-28
2022/07/31 06:03:28;;;;;;;6.18;5.57;;;;;;;16.70;66.58;100990.06;5064670;28;20111;-28
2022/07/31 06:05:54;;;;;;;6.18;5.78;;;;;;;16.78;66.76;100980.06;5073739;28;20052;-28
2022/07/31 06:08:20;;;;;;;6.93;6.32;;;;;;;16.84;67.22;100989.66;5074091;28;20033;-28
2022/07/31 06:10:45;;;;;;;5.72;5.32;;;;;;;16.90;66.61;100993.91;5072395;28;20063;-28
2022/07/31 06:13:11;;;;;;;6.38;5.88;;;;;;;16.97;66.26;100995.47;5073104;28;20056;-28
2022/07/31 06:15:37;;;;;;;6.65;6.05;;;;;;;17.04;66.57;100993.53;5053904;28;20027;-28
2022/07/31 06:18:03;;;;;;;5.55;5.15;;;;;;;17.10;66.48;101001.34;5073157;28;20032;-28
2022/07/31 06:20:28;;;;;;;7.05;6.47;;;;;;;17.17;66.65;101002.00;5072798;28;20032;-28
2022/07/31 06:22:53;;;;;;;6.85;6.28;;;;;;;17.24;66.02;101013.38;5076519;28;20036;-28
2022/07/31 06:25:19;;;;;;;7.10;6.38;;;;;;;17.30;66.47;101008.72;5072644;28;20032;-28
2022/07/31 06:27:44;;;;;;;6.25;5.75;;;;;;;17.38;66.66;101011.13;5057193;28;20047;-28
2022/07/31 06:30:11;;;;;;;6.38;5.95;;;;;;;17.43;66.61;101016.28;5058116;28;20040;-28
2022/07/31 06:32:36;;;;;;;6.05;5.60;;;;;;;17.52;66.17;101013.34;5077861;28;20116;-28
2022/07/31 06:35:02;;;;;;;6.50;5.90;;;;;;;17.59;66.46;101015.78;5077770;28;20664;-28
2022/07/31 06:37:28;;;;;;;7.18;6.57;;;;;;;17.64;66.95;101014.72;5072771;28;20111;-28
2022/07/31 06:39:53;;;;;;;6.80;6.25;;;;;;;17.70;67.08;101005.63;5070584;28;20038;-28
2022/07/31 06:42:19;;;;;;;8.88;8.13;;;;;;;17.77;67.21;101007.19;5071704;28;20442;-28
2022/07/31 06:44:44;;;;;;;7.30;6.70;;;;;;;17.83;66.71;101008.75;5072245;28;20124;-28
2022/07/31 06:47:10;;;;;;;8.25;7.45;;;;;;;17.88;67.34;101006.81;5071917;28;20112;-28
2022/07/31 06:49:35;;;;;;;7.15;6.55;;;;;;;17.93;66.50;100998.63;5072987;28;20033;-28
2022/07/31 06:52:00;;;;;;;7.75;7.03;;;;;;;18.01;66.92;100990.38;5076178;28;20392;-28
2022/07/31 06:54:26;;;;;;;7.90;7.20;;;;;;;18.06;66.12;101001.75;5071289;28;20495;-28
2022/07/31 06:56:51;;;;;;;8.77;7.45;;;;;;;18.08;66.90;100999.91;5072844;28;20032;-28
2022/07/31 06:59:16;;;;;;;6.93;6.43;;;;;;;18.14;66.38;100993.53;5072030;28;20051;-28
2022/07/31 07:01:42;;;;;;;7.70;7.10;;;;;;;18.20;66.18;100990.59;5050093;28;20029;-28
2022/07/31 07:04:08;;;;;;;7.53;6.82;;;;;;;18.25;67.17;100986.00;5037541;28;20020;-28
2022/07/31 07:06:33;;;;;;;8.48;7.70;;;;;;;18.31;67.64;100990.25;5073332;28;20056;-28
2022/07/31 07:08:58;;;;;;;6.93;6.43;;;;;;;18.39;67.24;100985.47;5079554;28;20059;-28
2022/07/31 07:11:24;;;;;;;8.95;8.15;;;;;;;18.48;66.63;100988.72;5075158;28;20487;-28
2022/07/31 07:13:50;;;;;;;9.43;8.57;;;;;;;18.55;67.85;100983.13;5072067;28;20486;-28
2022/07/31 07:16:15;;;;;;;10.52;9.40;;;;;;;18.61;67.32;100983.81;5070346;28;20025;-28
2022/07/31 07:18:44;;;;;;;10.98;9.98;;;;;;;18.71;66.28;100988.72;5068833;28;20475;-28
2022/07/31 07:21:10;;;;;;;8.93;8.27;;;;;;;18.81;66.82;100980.38;5068958;28;20047;-28
2022/07/31 07:23:35;;;;;;;9.63;8.82;;;;;;;18.89;67.11;100986.28;5072799;28;20024;-28
2022/07/31 07:26:00;;;;;;;10.25;9.40;;;;;;;18.97;65.85;100980.63;5071911;28;20108;-28
2022/07/31 07:28:26;;;;;;;9.82;8.93;;;;;;;19.05;66.90;100975.88;5071233;28;20020;-28
2022/07/31 07:30:51;;;;;;;9.43;8.52;;;;;;;19.14;65.62;100973.78;5081815;28;20042;-28
2022/07/31 07:33:16;;;;;;;8.88;8.15;;;;;;;19.24;66.00;100969.78;5070324;28;20039;-28
2022/07/31 07:35:42;;;;;;;8.82;8.15;;;;;;;19.35;65.00;100972.88;5071841;28;20032;-28
2022/07/31 07:38:08;;;;;;;8.77;8.02;;;;;;;19.47;65.39;100967.94;5072316;28;20029;-28
2022/07/31 07:40:33;;;;;;;9.63;8.82;;;;;;;19.56;67.17;100964.03;5073789;28;20032;-28
2022/07/31 07:42:59;;;;;;;10.00;9.10;;;;;;;19.69;67.04;100969.72;5071184;28;20024;-28
2022/07/31 07:45:24;;;;;;;9.52;8.65;;;;;;;19.75;66.09;100970.31;5072303;28;20059;-27
2022/07/31 07:47:49;;;;;;;9.70;8.77;;;;;;;19.86;66.34;100967.19;5055461;28;20039;-28
2022/07/31 07:50:15;;;;;;;10.20;9.40;;;;;;;19.99;65.14;100972.00;5078058;28;20028;-28
2022/07/31 07:52:41;;;;;;;9.70;8.90;;;;;;;20.09;65.44;100960.00;5082833;28;20036;-28
2022/07/31 07:55:07;;;;;;;9.07;8.38;;;;;;;20.20;64.72;100962.19;5071906;28;20513;-28
2022/07/31 07:57:34;;;;;;;8.82;8.13;;;;;;;20.28;66.79;100961.84;5068424;28;20016;-26
2022/07/31 08:00:00;;;;;;;10.30;9.43;;;;;;;20.42;64.45;100945.13;5072942;28;20510;-28
2022/07/31 08:02:25;;;;;;;10.55;9.68;;;;;;;20.59;66.32;100938.09;5070922;28;20028;-28
2022/07/31 08:04:51;;;;;;;10.40;9.43;;;;;;;20.70;66.01;100935.78;5071238;28;20023;-28
2022/07/31 08:07:17;;;;;;;10.48;9.57;;;;;;;20.81;64.60;100932.56;5070800;28;20029;-27
2022/07/31 08:09:42;;;;;;;8.68;7.90;;;;;;;20.90;64.35;100936.66;5052578;28;20032;-28
2022/07/31 08:12:07;;;;;;;9.15;8.45;;;;;;;21.00;64.52;100942.44;5053478;28;20063;-28
2022/07/31 08:14:33;;;;;;;8.75;7.82;;;;;;;21.08;64.58;100934.91;5071735;28;20062;-28
2022/07/31 08:16:58;;;;;;;8.18;7.47;;;;;;;21.16;64.91;100945.25;5071666;28;20380;-28
2022/07/31 08:19:24;;;;;;;9.25;8.48;;;;;;;21.24;65.04;100944.88;5084786;28;20085;-28
2022/07/31 08:21:50;;;;;;;11.98;9.48;;;;;;;21.34;64.93;100945.28;5076405;28;20063;-28
2022/07/31 08:24:15;;;;;;;8.82;8.13;;;;;;;21.39;65.43;100938.75;5082272;28;20039;-27
2022/07/31 08:29:25;;;;;;;9.25;8.50;;;;;;;21.69;64.39;100936.34;5055004;28;20039;-28
2022/07/31 08:31:50;;;;;;;9.30;8.45;;;;;;;21.86;64.76;100938.19;5069367;28;20028;-28
2022/07/31 08:34:17;;;;;;;9.18;8.32;;;;;;;22.03;64.71;100935.50;5068978;28;20036;-28
2022/07/31 08:36:42;;;;;;;8.93;8.10;;;;;;;22.20;65.61;100928.31;5070722;28;20036;-28
2022/07/31 08:39:08;;;;;;;12.18;9.23;;;;;;;22.38;64.35;100931.81;5080067;28;20020;-28
2022/07/31 08:41:33;;;;;;;9.73;8.82;;;;;;;22.56;65.60;100929.09;5080197;28;20034;-27
2022/07/31 08:43:59;;;;;;;10.65;8.55;;;;;;;22.75;64.03;100933.44;5070040;28;20033;-27
2022/07/31 08:46:25;;;;;;;9.27;8.52;;;;;;;22.81;63.27;100933.13;5050561;28;20111;-27
2022/07/31 08:48:54;;;;;;;8.50;7.80;;;;;;;22.91;62.87;100928.91;5068293;28;20055;-28
2022/07/31 08:51:23;;;;;;;9.90;8.80;;;;;;;23.07;63.13;100925.34;5074309;28;20032;-27
2022/07/31 08:53:51;;;;;;;8.13;7.50;;;;;;;23.17;62.73;100918.47;5075089;28;20020;-27
2022/07/31 08:56:19;;;;;;;7.80;7.18;;;;;;;23.29;63.49;100921.41;5079639;28;20023;-27
2022/07/31 08:58:44;;;;;;;7.07;6.50;;;;;;;23.40;63.24;100927.03;5062954;28;20047;-27
2022/07/31 09:01:10;;;;;;;7.05;6.45;;;;;;;23.64;63.44;100923.84;5051249;28;20471;-28
2022/07/31 09:03:36;;;;;;;8.57;7.38;;;;;;;23.82;62.24;100923.69;5067214;28;20044;-27
2022/07/31 09:06:02;;;;;;;7.15;6.55;;;;;;;23.92;61.42;100924.84;5068467;28;20032;-27
2022/07/31 09:08:33;;;;;;;7.50;6.80;;;;;;;24.01;60.86;100914.47;5069380;28;20557;-27
2022/07/31 09:11:04;;;;;;;6.82;6.32;;;;;;;24.18;61.19;100913.44;5050901;28;20033;-27
2022/07/31 09:13:29;;;;;;;6.57;6.05;;;;;;;24.26;60.88;100912.94;5079940;28;20077;-29
2022/07/31 09:15:57;;;;;;;6.85;6.22;;;;;;;24.42;61.11;100907.44;5068195;28;20032;-27
2022/07/31 09:18:24;;;;;;;7.40;6.00;;;;;;;24.56;60.73;100910.13;5068588;28;20078;-27
2022/07/31 09:21:15;;;;;;;7.38;6.72;;;;;;;24.59;60.75;100901.84;5065387;28;20027;-27
2022/07/31 09:23:45;;;;;;;6.35;5.85;;;;;;;24.82;59.90;100898.59;5028227;28;1055075;-28
2022/07/31 09:26:11;;;;;;;6.68;6.28;;;;;;;25.13;58.56;100901.97;5070514;28;20526;-27
2022/07/31 09:28:44;;;;;;;5.90;5.47;;;;;;;25.24;58.33;100899.41;5055945;28;20951;-27
2022/07/31 09:31:11;;;;;;;5.93;5.38;;;;;;;25.43;58.04;100898.13;5068311;28;20020;-27
2022/07/31 09:33:38;;;;;;;6.05;5.55;;;;;;;25.39;58.28;100893.94;5065717;28;20027;-27
2022/07/31 09:36:04;;;;;;;7.25;5.10;;;;;;;25.68;55.89;100901.00;5075050;28;20419;-27
2022/07/31 09:38:35;;;;;;;7.30;5.63;;;;;;;25.75;56.92;100894.22;5084277;28;20046;-27
2022/07/31 09:41:27;;;;;;;4.72;4.40;;;;;;;25.97;54.08;100893.53;5084675;28;20454;-27
2022/07/31 09:44:02;;;;;;;5.78;4.45;;;;;;;26.07;53.48;100888.34;5074175;28;20036;-27
2022/07/31 09:46:41;;;;;;;6.28;4.93;;;;;;;26.16;54.10;100886.81;5085220;28;20480;-27
2022/07/31 09:49:06;;;;;;;4.85;4.35;;;;;;;26.26;53.65;100887.88;5090472;28;20069;-27
2022/07/31 09:51:39;;;;;;;5.05;4.63;;;;;;;26.37;53.78;100880.84;5071249;28;20103;-27
2022/07/31 09:54:05;;;;;;;7.47;4.60;;;;;;;26.41;53.27;100887.78;5069185;28;20035;-27
2022/07/31 09:56:31;;;;;;;4.65;4.18;;;;;;;26.55;52.55;100877.78;5072630;28;20025;-27
2022/07/31 09:58:58;;;;;;;4.40;4.00;;;;;;;26.56;53.68;100888.47;5059574;28;20103;-27
2022/07/31 10:01:24;;;;;;;4.25;3.88;;;;;;;26.67;53.07;100884.13;5055815;28;20488;-27
2022/07/31 10:03:51;;;;;;;4.25;3.95;;;;;;;26.67;53.99;100884.97;5054311;28;20040;-27
2022/07/31 10:06:18;;;;;;;4.07;3.70;;;;;;;26.83;52.87;100883.81;5062585;28;20058;-27
2022/07/31 10:08:47;;;;;;;4.03;3.80;;;;;;;26.98;51.95;100874.56;5073451;28;20032;-27
2022/07/31 10:11:13;;;;;;;4.15;3.80;;;;;;;27.05;51.95;100876.81;5068769;28;20058;-27
2022/07/31 10:13:45;;;;;;;3.83;3.53;;;;;;;27.17;51.80;100878.59;5073076;28;20020;-27
2022/07/31 10:16:10;;;;;;;3.63;3.33;;;;;;;27.29;51.69;100879.50;5073528;28;20047;-27
2022/07/31 10:18:37;;;;;;;5.38;3.78;;;;;;;27.26;52.70;100864.34;5072332;28;20423;-27
2022/07/31 10:21:04;;;;;;;3.72;3.42;;;;;;;27.34;52.03;100852.06;5061186;28;20070;-27
2022/07/31 10:23:32;;;;;;;4.53;3.80;;;;;;;27.46;51.32;100856.53;5069837;28;20021;-27
2022/07/31 10:25:59;;;;;;;4.07;3.70;;;;;;;27.70;50.12;100855.59;5056388;28;20024;-27
2022/07/31 10:28:25;;;;;;;5.68;4.10;;;;;;;27.82;49.61;100852.88;5081303;28;20433;-27
2022/07/31 10:30:51;;;;;;;3.85;3.65;;;;;;;27.79;49.43;100859.41;5059473;28;20039;-28
2022/07/31 10:33:17;;;;;;;6.10;3.67;;;;;;;27.77;50.30;100846.00;5070964;28;20044;-27
2022/07/31 10:36:02;;;;;;;4.15;3.75;;;;;;;27.82;50.90;100834.78;5071691;28;20440;-27
2022/07/31 10:38:42;;;;;;;4.07;3.50;;;;;;;28.05;49.91;100835.63;5070160;28;20407;-27
2022/07/31 10:41:24;;;;;;;4.03;3.78;;;;;;;28.25;47.98;100825.03;5073136;28;20040;-27
2022/07/31 10:43:56;;;;;;;3.35;3.15;;;;;;;28.34;48.43;100828.00;5056470;28;20055;-27
2022/07/31 10:46:30;;;;;;;3.80;3.50;;;;;;;28.48;47.82;100826.84;5053709;28;20020;-27
2022/07/31 10:48:56;;;;;;;3.50;3.20;;;;;;;28.52;47.02;100818.31;5060904;28;20021;-27
2022/07/31 10:51:22;;;;;;;3.83;3.53;;;;;;;28.51;48.92;100819.28;5063741;28;20119;-27
2022/07/31 10:54:01;;;;;;;4.07;3.17;;;;;;;28.64;47.36;100816.41;5065802;28;20105;-27
2022/07/31 10:56:27;;;;;;;3.22;2.95;;;;;;;28.62;47.33;100810.28;5048666;28;20033;-27
2022/07/31 10:58:55;;;;;;;3.58;3.30;;;;;;;28.65;47.36;100817.28;5049150;28;20020;-27
2022/07/31 11:01:21;;;;;;;3.40;3.10;;;;;;;28.61;46.82;100804.97;5071461;28;20056;-28
2022/07/31 11:03:51;;;;;;;3.75;3.33;;;;;;;28.71;47.40;100814.06;5071148;28;20032;-27
2022/07/31 11:06:16;;;;;;;3.75;3.55;;;;;;;28.83;47.32;100808.59;5071244;28;20046;-27
2022/07/31 11:08:46;;;;;;;3.53;3.28;;;;;;;28.91;47.42;100814.22;5071504;28;20503;-27
2022/07/31 11:11:13;;;;;;;4.90;2.97;;;;;;;29.02;47.61;100813.31;5068943;28;20055;-27
2022/07/31 11:13:54;;;;;;;5.70;3.40;;;;;;;29.12;47.34;100806.13;5073161;28;20046;-27
2022/07/31 11:16:19;;;;;;;3.95;3.65;;;;;;;29.33;45.33;100811.53;5063185;28;20029;-27
2022/07/31 11:19:02;;;;;;;5.00;3.20;;;;;;;29.40;45.29;100802.81;5069554;28;20499;-27
2022/07/31 11:21:41;;;;;;;3.47;3.28;;;;;;;29.36;45.37;100798.66;5069885;28;20036;-28
2022/07/31 11:24:13;;;;;;;3.15;2.95;;;;;;;29.31;45.79;100797.22;5068481;28;20035;-27
2022/07/31 11:26:57;;;;;;;3.78;3.33;;;;;;;29.41;45.54;100788.28;5051777;28;20035;-27